createdAt,value
2017-02-01T00:00:58.820Z,18.44
2017-02-01T00:02:12.547Z,18.44
2017-02-01T00:03:26.888Z,18.37
2017-02-01T00:04:41.278Z,18.36
2017-02-01T00:05:55.625Z,18.41
2017-02-01T00:07:09.988Z,18.41
2017-02-01T00:08:23.711Z,18.37
2017-02-01T00:09:38.104Z,18.29
2017-02-01T00:10:52.465Z,18.32
2017-02-01T00:12:06.821Z,18.37
2017-02-01T00:13:21.381Z,18.27
2017-02-01T00:14:35.981Z,18.3
2017-02-01T00:15:50.335Z,18.29
2017-02-01T00:17:04.751Z,18.3
2017-02-01T00:18:18.464Z,18.32
2017-02-01T00:19:32.841Z,18.26
2017-02-01T00:20:46.578Z,18.33
2017-02-01T00:22:00.532Z,18.36
2017-02-01T00:23:14.906Z,18.27
2017-02-01T00:24:29.290Z,18.26
2017-02-01T00:25:43.030Z,18.32
2017-02-01T00:26:57.377Z,18.21
2017-02-01T00:28:10.474Z,18.21
2017-02-01T00:29:24.841Z,18.17
2017-02-01T00:30:39.191Z,18.2
2017-02-01T00:31:53.545Z,18.2
2017-02-01T00:33:07.910Z,18.21
2017-02-01T00:34:22.282Z,18.23
2017-02-01T00:35:36.633Z,18.26
2017-02-01T00:36:50.991Z,18.25
2017-02-01T00:38:05.352Z,18.26
2017-02-01T00:39:19.087Z,18.12
2017-02-01T00:40:33.446Z,18.25
2017-02-01T00:41:47.817Z,18.27
2017-02-01T00:43:02.177Z,18.21
2017-02-01T00:44:16.528Z,18.25
2017-02-01T00:45:30.247Z,18.2
2017-02-01T00:46:44.623Z,18.26
2017-02-01T00:47:58.977Z,18.29
2017-02-01T00:49:12.719Z,18.29
2017-02-01T00:50:26.416Z,18.21
2017-02-01T00:51:40.838Z,18.23
2017-02-01T00:52:55.487Z,18.23
2017-02-01T00:54:09.867Z,18.23
2017-02-01T00:55:24.293Z,18.23
2017-02-01T00:56:38.628Z,18.15
2017-02-01T00:57:52.990Z,18.23
2017-02-01T00:59:07.338Z,18.15
2017-02-01T01:00:21.714Z,18.17
2017-02-01T01:01:36.063Z,18.15
2017-02-01T01:02:50.448Z,18.18
2017-02-01T01:04:04.788Z,18.11
2017-02-01T01:05:19.235Z,18.14
2017-02-01T01:06:33.596Z,18.14
2017-02-01T01:07:47.974Z,18.18
2017-02-01T01:09:02.320Z,18.14
2017-02-01T01:10:16.656Z,18.26
2017-02-01T01:11:31.037Z,18.17
2017-02-01T01:12:44.774Z,18.15
2017-02-01T01:13:59.168Z,18.15
2017-02-01T01:15:13.568Z,18.1
2017-02-01T01:16:27.288Z,18.18
2017-02-01T01:17:41.676Z,18.18
2017-02-01T01:18:56.037Z,18.2
2017-02-01T01:20:10.413Z,18.21
2017-02-01T01:21:24.777Z,18.26
2017-02-01T01:22:39.159Z,18.23
2017-02-01T01:23:53.513Z,18.27
2017-02-01T01:25:07.850Z,18.18
2017-02-01T01:26:22.232Z,18.21
2017-02-01T01:27:36.607Z,18.26
2017-02-01T01:28:50.967Z,18.26
2017-02-01T01:30:05.353Z,18.3
2017-02-01T01:31:19.722Z,18.3
2017-02-01T01:32:33.435Z,18.29
2017-02-01T01:33:47.765Z,18.14
2017-02-01T01:35:02.124Z,18.21
2017-02-01T01:36:16.494Z,18.17
2017-02-01T01:37:30.852Z,18.15
2017-02-01T01:38:45.248Z,18.21
2017-02-01T01:39:59.592Z,18.23
2017-02-01T01:41:13.920Z,18.2
2017-02-01T01:42:27.788Z,18.18
2017-02-01T01:43:42.334Z,18.17
2017-02-01T01:44:56.710Z,18.18
2017-02-01T01:46:10.422Z,18.17
2017-02-01T01:47:24.812Z,18.15
2017-02-01T01:48:39.166Z,18.18
2017-02-01T01:49:53.527Z,18.11
2017-02-01T01:51:07.890Z,18.18
2017-02-01T01:52:22.245Z,18.14
2017-02-01T01:53:36.623Z,18.14
2017-02-01T01:54:50.992Z,18.14
2017-02-01T01:56:05.418Z,18.14
2017-02-01T01:57:19.777Z,18.17
2017-02-01T01:58:34.140Z,18.11
2017-02-01T01:59:48.547Z,18.2
2017-02-01T02:01:02.946Z,18.12
2017-02-01T02:02:17.362Z,18.18
2017-02-01T02:03:31.748Z,18.11
2017-02-01T02:04:46.170Z,18.14
2017-02-01T02:06:00.564Z,18.1
2017-02-01T02:07:15.241Z,18.08
2017-02-01T02:08:29.605Z,18.1
2017-02-01T02:09:43.977Z,18.25
2017-02-01T02:10:58.321Z,18.08
2017-02-01T02:12:12.717Z,18.17
2017-02-01T02:13:27.072Z,18.14
2017-02-01T02:14:41.433Z,18.11
2017-02-01T02:15:55.831Z,18.08
2017-02-01T02:17:10.208Z,18.17
2017-02-01T02:18:24.597Z,18.08
2017-02-01T02:19:38.928Z,18.12
2017-02-01T02:20:53.289Z,18.08
2017-02-01T02:22:07.646Z,18.21
2017-02-01T02:23:21.361Z,18.17
2017-02-01T02:24:35.748Z,18.08
2017-02-01T02:25:50.178Z,18.21
2017-02-01T02:27:04.593Z,18.15
2017-02-01T02:28:18.933Z,18.14
2017-02-01T02:29:32.710Z,18.25
2017-02-01T02:30:47.076Z,18.2
2017-02-01T02:32:01.408Z,18.21
2017-02-01T02:33:15.769Z,18.35
2017-02-01T02:34:29.499Z,18.33
2017-02-01T02:35:43.850Z,18.36
2017-02-01T02:36:58.192Z,18.33
2017-02-01T02:38:12.522Z,18.23
2017-02-01T02:39:26.876Z,18.23
2017-02-01T02:40:41.271Z,18.29
2017-02-01T02:41:55.666Z,18.37
2017-02-01T02:43:10.031Z,18.35
2017-02-01T02:44:24.416Z,18.44
2017-02-01T02:45:38.808Z,18.5
2017-02-01T02:46:53.229Z,18.54
2017-02-01T02:48:07.607Z,18.52
2017-02-01T02:49:21.943Z,18.55
2017-02-01T02:50:36.307Z,18.65
2017-02-01T02:51:50.687Z,18.52
2017-02-01T02:53:05.056Z,18.63
2017-02-01T02:54:18.784Z,18.57
2017-02-01T02:55:33.181Z,18.6
2017-02-01T02:56:47.546Z,18.65
2017-02-01T02:58:01.874Z,18.65
2017-02-01T02:59:16.233Z,18.69
2017-02-01T03:00:30.640Z,18.63
2017-02-01T03:01:45.021Z,18.55
2017-02-01T03:02:59.424Z,18.57
2017-02-01T03:04:13.789Z,18.66
2017-02-01T03:05:28.193Z,18.62
2017-02-01T03:06:42.574Z,18.72
2017-02-01T03:07:56.955Z,18.81
2017-02-01T03:09:10.684Z,18.88
2017-02-01T03:10:25.046Z,18.88
2017-02-01T03:11:39.399Z,18.94
2017-02-01T03:12:53.744Z,18.91
2017-02-01T03:14:08.123Z,18.82
2017-02-01T03:15:22.497Z,18.85
2017-02-01T03:16:36.195Z,18.8
2017-02-01T03:17:50.535Z,18.7
2017-02-01T03:19:04.884Z,18.8
2017-02-01T03:20:19.294Z,18.8
2017-02-01T03:21:33.022Z,18.87
2017-02-01T03:22:47.410Z,18.73
2017-02-01T03:24:01.778Z,18.66
2017-02-01T03:25:15.522Z,18.6
2017-02-01T03:26:29.873Z,18.55
2017-02-01T03:27:44.223Z,18.62
2017-02-01T03:28:58.606Z,18.65
2017-02-01T03:30:12.349Z,18.62
2017-02-01T03:31:26.767Z,18.65
2017-02-01T03:32:41.114Z,18.57
2017-02-01T03:33:55.475Z,18.73
2017-02-01T03:35:09.830Z,18.78
2017-02-01T03:36:24.236Z,18.78
2017-02-01T03:37:38.615Z,18.69
2017-02-01T03:38:52.993Z,18.69
2017-02-01T03:40:07.353Z,18.72
2017-02-01T03:41:21.743Z,18.76
2017-02-01T03:42:36.143Z,18.72
2017-02-01T03:43:50.517Z,18.66
2017-02-01T03:45:04.876Z,18.75
2017-02-01T03:46:19.256Z,18.69
2017-02-01T03:47:33.625Z,18.81
2017-02-01T03:48:48.031Z,18.8
2017-02-01T03:50:02.456Z,18.88
2017-02-01T03:51:15.571Z,18.91
2017-02-01T03:52:29.936Z,18.87
2017-02-01T03:53:44.291Z,18.92
2017-02-01T03:54:58.032Z,19.04
2017-02-01T03:56:12.472Z,19.02
2017-02-01T03:57:26.815Z,18.84
2017-02-01T03:58:41.193Z,18.82
2017-02-01T03:59:55.618Z,18.81
2017-02-01T04:01:10.026Z,18.67
2017-02-01T04:02:24.365Z,18.62
2017-02-01T04:03:38.712Z,18.66
2017-02-01T04:04:53.110Z,18.75
2017-02-01T04:06:07.498Z,18.69
2017-02-01T04:07:21.226Z,18.67
2017-02-01T04:08:34.908Z,18.6
2017-02-01T04:09:49.291Z,18.6
2017-02-01T04:11:03.696Z,18.62
2017-02-01T04:12:18.075Z,18.65
2017-02-01T04:13:32.438Z,18.69
2017-02-01T04:14:46.793Z,18.7
2017-02-01T04:16:01.173Z,18.7
2017-02-01T04:17:14.469Z,18.75
2017-02-01T04:18:28.852Z,18.7
2017-02-01T04:19:43.214Z,18.85
2017-02-01T04:20:57.582Z,18.81
2017-02-01T04:22:11.967Z,18.84
2017-02-01T04:23:26.343Z,18.81
2017-02-01T04:24:40.678Z,18.7
2017-02-01T04:25:54.427Z,18.67
2017-02-01T04:27:08.777Z,18.73
2017-02-01T04:28:23.136Z,18.82
2017-02-01T04:29:37.509Z,18.84
2017-02-01T04:30:51.877Z,18.88
2017-02-01T04:32:06.266Z,18.8
2017-02-01T04:33:20.629Z,18.81
2017-02-01T04:34:35.038Z,18.81
2017-02-01T04:35:49.410Z,18.84
2017-02-01T04:37:03.774Z,18.73
2017-02-01T04:38:18.132Z,18.85
2017-02-01T04:39:32.537Z,18.81
2017-02-01T04:40:46.890Z,18.88
2017-02-01T04:42:01.248Z,18.91
2017-02-01T04:43:15.644Z,18.9
2017-02-01T04:44:30.062Z,18.9
2017-02-01T04:45:44.398Z,18.85
2017-02-01T04:47:01.954Z,18.84
2017-02-01T04:48:16.464Z,18.9
2017-02-01T04:49:30.819Z,18.84
2017-02-01T04:50:45.191Z,19.02
2017-02-01T04:51:59.562Z,18.91
2017-02-01T04:53:13.920Z,19.1
2017-02-01T04:54:28.272Z,19.1
2017-02-01T04:55:42.663Z,19.1
2017-02-01T04:56:57.021Z,19.08
2017-02-01T04:58:10.778Z,19.18
2017-02-01T04:59:25.124Z,19.07
2017-02-01T05:00:38.874Z,19.11
2017-02-01T05:01:53.245Z,19.16
2017-02-01T05:03:07.604Z,19.1
2017-02-01T05:04:21.992Z,19.18
2017-02-01T05:05:35.703Z,19.19
2017-02-01T05:06:50.081Z,19.18
2017-02-01T05:08:04.465Z,19.04
2017-02-01T05:09:18.824Z,19.1
2017-02-01T05:10:33.206Z,19.02
2017-02-01T05:11:47.625Z,19.07
2017-02-01T05:13:01.974Z,19.06
2017-02-01T05:14:16.304Z,19.02
2017-02-01T05:15:30.034Z,18.98
2017-02-01T05:16:44.447Z,18.98
2017-02-01T05:17:58.828Z,18.91
2017-02-01T05:19:13.169Z,18.92
2017-02-01T05:20:27.488Z,18.88
2017-02-01T05:21:41.185Z,19.02
2017-02-01T05:22:55.539Z,18.91
2017-02-01T05:24:09.952Z,19.02
2017-02-01T05:25:24.330Z,18.92
2017-02-01T05:26:38.675Z,18.98
2017-02-01T05:27:53.041Z,18.91
2017-02-01T05:29:07.424Z,18.87
2017-02-01T05:30:21.835Z,18.91
2017-02-01T05:31:36.270Z,18.91
2017-02-01T05:32:50.626Z,18.9
2017-02-01T05:34:04.987Z,18.85
2017-02-01T05:35:19.347Z,18.78
2017-02-01T05:36:33.724Z,18.76
2017-02-01T05:37:48.075Z,18.7
2017-02-01T05:39:02.431Z,18.82
2017-02-01T05:40:16.785Z,18.85
2017-02-01T05:41:31.145Z,18.81
2017-02-01T05:42:45.504Z,18.88
2017-02-01T05:43:59.887Z,18.81
2017-02-01T05:45:12.957Z,18.88
2017-02-01T05:46:27.320Z,18.92
2017-02-01T05:47:41.049Z,19.04
2017-02-01T05:48:55.432Z,19.04
2017-02-01T05:50:09.805Z,18.95
2017-02-01T05:51:24.193Z,19.02
2017-02-01T05:52:37.915Z,18.91
2017-02-01T05:53:52.239Z,18.92
2017-02-01T05:55:06.658Z,18.98
2017-02-01T05:56:21.012Z,18.95
2017-02-01T05:57:34.735Z,19.02
2017-02-01T05:58:49.091Z,18.99
2017-02-01T06:00:03.481Z,18.98
2017-02-01T06:01:17.850Z,18.9
2017-02-01T06:02:32.258Z,18.98
2017-02-01T06:03:46.682Z,19.06
2017-02-01T06:05:01.041Z,18.94
2017-02-01T06:06:14.786Z,18.99
2017-02-01T06:07:29.132Z,19
2017-02-01T06:08:43.509Z,19.04
2017-02-01T06:09:57.875Z,18.95
2017-02-01T06:11:12.416Z,19.06
2017-02-01T06:12:26.761Z,19.07
2017-02-01T06:13:39.854Z,19.13
2017-02-01T06:14:54.207Z,19.04
2017-02-01T06:16:07.924Z,19
2017-02-01T06:17:22.258Z,19.06
2017-02-01T06:18:36.611Z,18.98
2017-02-01T06:19:51.013Z,19.04
2017-02-01T06:21:05.420Z,19.13
2017-02-01T06:22:19.811Z,19.04
2017-02-01T06:23:34.218Z,19.02
2017-02-01T06:24:48.610Z,19.06
2017-02-01T06:26:02.970Z,19.06
2017-02-01T06:27:16.746Z,19.07
2017-02-01T06:28:31.109Z,18.95
2017-02-01T06:29:45.519Z,18.95
2017-02-01T06:30:59.851Z,18.95
2017-02-01T06:32:13.587Z,18.94
2017-02-01T06:33:27.965Z,18.98
2017-02-01T06:34:42.465Z,18.91
2017-02-01T06:35:56.850Z,19
2017-02-01T06:37:10.563Z,19
2017-02-01T06:38:24.311Z,19
2017-02-01T06:39:38.667Z,19.04
2017-02-01T06:40:53.050Z,19.07
2017-02-01T06:42:07.398Z,19.07
2017-02-01T06:43:21.762Z,19.11
2017-02-01T06:44:36.146Z,19.1
2017-02-01T06:45:50.482Z,19.18
2017-02-01T06:47:04.852Z,19.14
2017-02-01T06:48:18.589Z,19.19
2017-02-01T06:49:32.944Z,19.14
2017-02-01T06:50:47.385Z,19.16
2017-02-01T06:52:01.749Z,19.18
2017-02-01T06:53:16.123Z,19.18
2017-02-01T06:54:30.504Z,19.29
2017-02-01T06:55:44.879Z,19.22
2017-02-01T06:56:59.248Z,19.31
2017-02-01T06:58:13.674Z,19.22
2017-02-01T06:59:28.061Z,19.29
2017-02-01T07:00:42.446Z,19.22
2017-02-01T07:01:56.183Z,19.21
2017-02-01T07:03:10.579Z,19.18
2017-02-01T07:04:24.971Z,19.18
2017-02-01T07:05:39.362Z,19.18
2017-02-01T07:06:53.742Z,19.16
2017-02-01T07:08:08.099Z,19.07
2017-02-01T07:09:22.516Z,19.13
2017-02-01T07:10:36.892Z,19.04
2017-02-01T07:11:51.240Z,19.04
2017-02-01T07:13:05.596Z,19
2017-02-01T07:14:19.305Z,19.02
2017-02-01T07:15:33.697Z,19.11
2017-02-01T07:16:47.417Z,19.19
2017-02-01T07:18:01.773Z,19.18
2017-02-01T07:19:16.131Z,19.11
2017-02-01T07:20:30.518Z,19.22
2017-02-01T07:21:44.246Z,19.23
2017-02-01T07:22:58.663Z,19.18
2017-02-01T07:24:13.015Z,19.16
2017-02-01T07:25:27.380Z,19.21
2017-02-01T07:26:41.764Z,19.16
2017-02-01T07:27:56.106Z,19.23
2017-02-01T07:29:10.470Z,19.26
2017-02-01T07:30:24.828Z,19.36
2017-02-01T07:31:39.177Z,19.29
2017-02-01T07:32:52.878Z,19.29
2017-02-01T07:34:07.267Z,19.31
2017-02-01T07:35:20.985Z,19.36
2017-02-01T07:36:35.355Z,19.25
2017-02-01T07:37:49.741Z,19.23
2017-02-01T07:39:03.459Z,19.36
2017-02-01T07:40:17.823Z,19.41
2017-02-01T07:41:32.196Z,19.47
2017-02-01T07:42:46.593Z,19.48
2017-02-01T07:44:00.965Z,19.5
2017-02-01T07:45:14.054Z,19.48
2017-02-01T07:46:28.457Z,19.43
2017-02-01T07:47:42.844Z,19.41
2017-02-01T07:48:56.564Z,19.48
2017-02-01T07:50:10.957Z,19.44
2017-02-01T07:51:25.356Z,19.46
2017-02-01T07:52:39.742Z,19.41
2017-02-01T07:53:54.320Z,19.36
2017-02-01T07:55:08.061Z,19.44
2017-02-01T07:56:22.468Z,19.39
2017-02-01T07:57:36.833Z,19.4
2017-02-01T07:58:51.206Z,19.39
2017-02-01T08:00:05.639Z,19.41
2017-02-01T08:01:20.008Z,19.29
2017-02-01T08:02:34.387Z,19.31
2017-02-01T08:03:48.777Z,19.33
2017-02-01T08:05:03.312Z,19.41
2017-02-01T08:06:17.661Z,19.4
2017-02-01T08:07:32.030Z,19.32
2017-02-01T08:08:46.379Z,19.36
2017-02-01T08:10:00.720Z,19.4
2017-02-01T08:11:14.422Z,19.32
2017-02-01T08:12:28.966Z,19.33
2017-02-01T08:13:43.414Z,19.18
2017-02-01T08:14:57.781Z,19.29
2017-02-01T08:16:12.164Z,19.28
2017-02-01T08:17:26.544Z,19.36
2017-02-01T08:18:40.290Z,19.37
2017-02-01T08:19:54.716Z,19.32
2017-02-01T08:21:09.079Z,19.37
2017-02-01T08:22:23.463Z,19.4
2017-02-01T08:23:37.817Z,19.36
2017-02-01T08:24:52.231Z,19.32
2017-02-01T08:26:06.620Z,19.47
2017-02-01T08:27:21.019Z,19.44
2017-02-01T08:28:35.435Z,19.43
2017-02-01T08:29:49.775Z,19.47
2017-02-01T08:31:03.537Z,19.54
2017-02-01T08:32:17.885Z,19.55
2017-02-01T08:33:32.265Z,19.61
2017-02-01T08:34:46.657Z,19.62
2017-02-01T08:36:00.397Z,19.69
2017-02-01T08:37:14.736Z,19.51
2017-02-01T08:38:29.098Z,19.41
2017-02-01T08:39:42.786Z,19.48
2017-02-01T08:40:57.165Z,19.39
2017-02-01T08:42:10.901Z,19.44
2017-02-01T08:43:25.332Z,19.43
2017-02-01T08:44:39.708Z,19.41
2017-02-01T08:45:54.445Z,19.41
2017-02-01T08:47:09.172Z,19.46
2017-02-01T08:48:23.587Z,19.39
2017-02-01T08:49:37.957Z,19.4
2017-02-01T08:50:52.395Z,19.33
2017-02-01T08:52:06.714Z,19.36
2017-02-01T08:53:21.139Z,19.33
2017-02-01T08:54:35.564Z,19.37
2017-02-01T08:55:49.938Z,19.41
2017-02-01T08:57:04.319Z,19.41
2017-02-01T08:58:18.674Z,19.33
2017-02-01T08:59:33.058Z,19.47
2017-02-01T09:00:47.417Z,19.39
2017-02-01T09:02:01.754Z,19.39
2017-02-01T09:03:15.452Z,19.41
2017-02-01T09:04:29.851Z,19.48
2017-02-01T09:05:44.193Z,19.55
2017-02-01T09:06:58.547Z,19.44
2017-02-01T09:08:12.918Z,19.56
2017-02-01T09:09:27.310Z,19.65
2017-02-01T09:10:41.727Z,19.68
2017-02-01T09:11:56.110Z,19.68
2017-02-01T09:13:10.499Z,19.69
2017-02-01T09:14:24.875Z,19.73
2017-02-01T09:15:38.647Z,19.71
2017-02-01T09:16:52.372Z,19.83
2017-02-01T09:18:06.784Z,19.81
2017-02-01T09:19:21.127Z,19.87
2017-02-01T09:20:35.473Z,19.83
2017-02-01T09:21:49.836Z,19.83
2017-02-01T09:23:04.196Z,19.87
2017-02-01T09:24:18.527Z,20.08
2017-02-01T09:25:32.253Z,20.14
2017-02-01T09:26:45.948Z,20.2
2017-02-01T09:28:00.354Z,20.23
2017-02-01T09:29:13.438Z,20.17
2017-02-01T09:30:27.161Z,20.29
2017-02-01T09:31:40.874Z,20.24
2017-02-01T09:32:55.243Z,20.28
2017-02-01T09:34:09.624Z,20.29
2017-02-01T09:35:23.379Z,20.2
2017-02-01T09:36:37.731Z,20.29
2017-02-01T09:37:52.114Z,20.29
2017-02-01T09:39:05.847Z,20.32
2017-02-01T09:40:20.207Z,20.42
2017-02-01T09:41:34.565Z,20.48
2017-02-01T09:42:48.961Z,20.5
2017-02-01T09:44:03.351Z,20.59
2017-02-01T09:45:17.067Z,20.57
2017-02-01T09:46:31.428Z,20.64
2017-02-01T09:47:45.817Z,20.57
2017-02-01T09:49:00.206Z,20.62
2017-02-01T09:50:14.595Z,20.7
2017-02-01T09:51:28.950Z,20.82
2017-02-01T09:52:43.337Z,20.76
2017-02-01T09:53:57.710Z,20.79
2017-02-01T09:55:12.100Z,20.76
2017-02-01T09:56:26.477Z,20.89
2017-02-01T09:57:40.855Z,20.91
2017-02-01T09:58:55.228Z,20.94
2017-02-01T10:00:08.295Z,20.89
2017-02-01T10:01:22.016Z,21.01
2017-02-01T10:02:36.375Z,21.07
2017-02-01T10:03:50.753Z,21.13
2017-02-01T10:05:04.476Z,21.17
2017-02-01T10:06:18.848Z,21.22
2017-02-01T10:07:33.216Z,21.38
2017-02-01T10:08:46.283Z,21.32
2017-02-01T10:10:00.020Z,21.38
2017-02-01T10:11:13.720Z,21.35
2017-02-01T10:12:28.088Z,21.42
2017-02-01T10:13:42.477Z,21.44
2017-02-01T10:14:56.830Z,21.53
2017-02-01T10:16:10.559Z,21.53
2017-02-01T10:17:23.643Z,21.49
2017-02-01T10:18:38.054Z,21.44
2017-02-01T10:19:52.466Z,21.59
2017-02-01T10:21:06.868Z,21.56
2017-02-01T10:22:21.259Z,21.72
2017-02-01T10:23:35.671Z,21.72
2017-02-01T10:24:50.081Z,21.8
2017-02-01T10:26:04.494Z,21.67
2017-02-01T10:27:18.224Z,21.72
2017-02-01T10:28:32.609Z,21.77
2017-02-01T10:29:47.005Z,21.91
2017-02-01T10:31:01.361Z,22.02
2017-02-01T10:32:15.722Z,22.12
2017-02-01T10:33:30.083Z,21.99
2017-02-01T10:34:43.795Z,21.98
2017-02-01T10:35:58.173Z,21.9
2017-02-01T10:37:12.547Z,21.91
2017-02-01T10:38:26.907Z,21.94
2017-02-01T10:39:41.268Z,22.03
2017-02-01T10:40:55.646Z,22
2017-02-01T10:42:10.037Z,22.03
2017-02-01T10:43:24.381Z,22.07
2017-02-01T10:44:38.738Z,21.9
2017-02-01T10:45:53.138Z,21.9
2017-02-01T10:47:07.508Z,21.99
2017-02-01T10:48:20.635Z,22.07
2017-02-01T10:49:35.022Z,22.03
2017-02-01T10:50:49.373Z,22.22
2017-02-01T10:52:03.088Z,22.3
2017-02-01T10:53:17.448Z,22.4
2017-02-01T10:54:31.797Z,22.57
2017-02-01T10:55:45.585Z,22.62
2017-02-01T10:56:59.949Z,22.8
2017-02-01T10:58:12.371Z,22.83
2017-02-01T10:59:26.739Z,22.91
2017-02-01T11:00:41.129Z,22.98
2017-02-01T11:01:55.480Z,23.09
2017-02-01T11:03:09.854Z,23.07
2017-02-01T11:04:24.245Z,23.17
2017-02-01T11:05:38.594Z,23.2
2017-02-01T11:06:52.328Z,23.02
2017-02-01T11:08:06.691Z,22.98
2017-02-01T11:09:21.108Z,22.86
2017-02-01T11:10:35.455Z,22.86
2017-02-01T11:11:49.846Z,22.85
2017-02-01T11:13:04.230Z,22.73
2017-02-01T11:14:18.625Z,22.72
2017-02-01T11:15:32.997Z,22.83
2017-02-01T11:16:47.356Z,22.86
2017-02-01T11:18:01.745Z,22.98
2017-02-01T11:19:16.145Z,23.22
2017-02-01T11:20:29.877Z,23.39
2017-02-01T11:21:44.248Z,23.57
2017-02-01T11:22:58.642Z,23.6
2017-02-01T11:24:12.376Z,23.7
2017-02-01T11:25:26.111Z,23.73
2017-02-01T11:26:40.519Z,23.76
2017-02-01T11:27:54.907Z,23.7
2017-02-01T11:29:11.355Z,23.63
2017-02-01T11:30:24.465Z,23.72
2017-02-01T11:31:38.841Z,23.84
2017-02-01T11:32:53.258Z,23.91
2017-02-01T11:34:06.956Z,23.91
2017-02-01T11:35:21.404Z,23.98
2017-02-01T11:36:35.756Z,24
2017-02-01T11:37:50.116Z,23.91
2017-02-01T11:39:04.503Z,23.97
2017-02-01T11:40:18.222Z,24.09
2017-02-01T11:41:32.631Z,24.16
2017-02-01T11:42:53.280Z,24.3
2017-02-01T11:44:08.184Z,24.45
2017-02-01T11:45:22.593Z,24.4
2017-02-01T11:46:36.967Z,24.42
2017-02-01T11:47:51.346Z,24.35
2017-02-01T11:49:05.745Z,24.18
2017-02-01T11:50:20.123Z,24.18
2017-02-01T11:51:34.513Z,23.98
2017-02-01T11:52:48.877Z,23.91
2017-02-01T11:54:03.240Z,23.98
2017-02-01T11:55:17.687Z,23.95
2017-02-01T11:56:32.062Z,24.1
2017-02-01T11:57:46.739Z,24
2017-02-01T11:59:01.075Z,24.1
2017-02-01T12:00:14.192Z,24.22
2017-02-01T12:01:28.556Z,24.21
2017-02-01T12:02:42.926Z,24.3
2017-02-01T12:03:57.289Z,24.21
2017-02-01T12:05:11.011Z,24.22
2017-02-01T12:06:24.737Z,24.3
2017-02-01T12:07:39.137Z,24.24
2017-02-01T12:08:52.843Z,24.4
2017-02-01T12:10:07.232Z,24.73
2017-02-01T12:11:20.937Z,24.96
2017-02-01T12:12:35.333Z,24.81
2017-02-01T12:13:49.021Z,24.76
2017-02-01T12:15:03.390Z,24.71
2017-02-01T12:16:17.093Z,24.99
2017-02-01T12:17:31.494Z,25.06
2017-02-01T12:18:45.860Z,25.23
2017-02-01T12:19:59.576Z,25.1
2017-02-01T12:21:13.332Z,25.21
2017-02-01T12:22:27.724Z,25.06
2017-02-01T12:23:42.128Z,24.99
2017-02-01T12:24:56.537Z,24.98
2017-02-01T12:26:10.914Z,24.93
2017-02-01T12:27:25.314Z,24.78
2017-02-01T12:28:39.050Z,24.62
2017-02-01T12:29:53.485Z,24.52
2017-02-01T12:31:07.838Z,24.52
2017-02-01T12:32:22.244Z,24.58
2017-02-01T12:33:35.999Z,24.85
2017-02-01T12:34:50.370Z,24.78
2017-02-01T12:36:04.752Z,25.02
2017-02-01T12:37:18.512Z,25.21
2017-02-01T12:38:32.851Z,25.23
2017-02-01T12:39:47.209Z,25.17
2017-02-01T12:41:02.025Z,25.23
2017-02-01T12:42:16.093Z,25.32
2017-02-01T12:43:29.802Z,25.3
2017-02-01T12:44:43.520Z,25.3
2017-02-01T12:45:57.942Z,25.39
2017-02-01T12:47:11.677Z,25.55
2017-02-01T12:48:24.784Z,25.8
2017-02-01T12:49:39.192Z,26.02
2017-02-01T12:50:53.610Z,26.15
2017-02-01T12:52:09.243Z,26.23
2017-02-01T12:53:22.379Z,26.12
2017-02-01T12:54:36.095Z,26.2
2017-02-01T12:55:50.456Z,26.33
2017-02-01T12:57:04.984Z,26.5
2017-02-01T12:58:18.801Z,26.4
2017-02-01T12:59:33.266Z,26.48
2017-02-01T13:00:47.669Z,26.67
2017-02-01T13:02:00.744Z,26.62
2017-02-01T13:03:14.439Z,26.54
2017-02-01T13:04:28.143Z,26.37
2017-02-01T13:05:42.607Z,26.25
2017-02-01T13:06:55.680Z,26.26
2017-02-01T13:08:09.380Z,26.44
2017-02-01T13:09:23.727Z,26.65
2017-02-01T13:10:38.070Z,26.57
2017-02-01T13:11:51.773Z,26.63
2017-02-01T13:13:06.091Z,26.81
2017-02-01T13:14:20.475Z,26.72
2017-02-01T13:15:35.233Z,26.91
2017-02-01T13:16:49.800Z,27.34
2017-02-01T13:18:03.506Z,27.7
2017-02-01T13:19:17.881Z,28.06
2017-02-01T13:20:32.237Z,27.85
2017-02-01T13:21:46.570Z,27.43
2017-02-01T13:23:00.908Z,27.22
2017-02-01T13:24:15.283Z,27.24
2017-02-01T13:25:29.003Z,26.77
2017-02-01T13:26:42.698Z,26.63
2017-02-01T13:27:56.388Z,26.36
2017-02-01T13:29:10.744Z,26.33
2017-02-01T13:30:24.456Z,26.26
2017-02-01T13:31:38.803Z,26.54
2017-02-01T13:32:53.143Z,26.77
2017-02-01T13:34:06.874Z,26.62
2017-02-01T13:35:20.567Z,26.47
2017-02-01T13:36:34.275Z,26.54
2017-02-01T13:37:48.607Z,26.5
2017-02-01T13:39:02.943Z,26.51
2017-02-01T13:40:17.317Z,26.44
2017-02-01T13:41:31.663Z,26.51
2017-02-01T13:42:46.032Z,26.62
2017-02-01T13:44:00.432Z,26.81
2017-02-01T13:45:14.126Z,27.04
2017-02-01T13:46:28.491Z,27.12
2017-02-01T13:47:42.823Z,27.54
2017-02-01T13:48:57.223Z,27.63
2017-02-01T13:50:11.003Z,27.67
2017-02-01T13:51:25.353Z,27.32
2017-02-01T13:52:39.703Z,27.19
2017-02-01T13:53:54.044Z,27.07
2017-02-01T13:55:08.383Z,26.92
2017-02-01T13:56:22.090Z,26.89
2017-02-01T13:57:35.162Z,26.91
2017-02-01T13:58:49.532Z,27
2017-02-01T14:00:03.851Z,26.94
2017-02-01T14:01:18.245Z,26.95
2017-02-01T14:02:32.603Z,26.89
2017-02-01T14:03:46.944Z,26.84
2017-02-01T14:05:01.297Z,26.72
2017-02-01T14:06:15.626Z,26.73
2017-02-01T14:07:29.974Z,26.97
2017-02-01T14:08:44.363Z,27.18
2017-02-01T14:09:58.706Z,27.09
2017-02-01T14:11:12.435Z,27.19
2017-02-01T14:12:26.925Z,27.5
2017-02-01T14:13:41.319Z,27.75
2017-02-01T14:14:55.704Z,27.79
2017-02-01T14:16:10.090Z,27.49
2017-02-01T14:17:24.587Z,27.43
2017-02-01T14:18:38.962Z,27.34
2017-02-01T14:19:53.316Z,27.32
2017-02-01T14:21:07.651Z,27.47
2017-02-01T14:22:21.342Z,27.65
2017-02-01T14:23:35.078Z,27.78
2017-02-01T14:24:49.452Z,27.9
2017-02-01T14:26:03.816Z,28.33
2017-02-01T14:27:18.182Z,28.74
2017-02-01T14:28:31.345Z,29.21
2017-02-01T14:29:45.060Z,29.65
2017-02-01T14:30:59.442Z,29.31
2017-02-01T14:32:13.853Z,28.98
2017-02-01T14:33:27.692Z,28.74
2017-02-01T14:34:42.587Z,28.67
2017-02-01T14:35:56.970Z,28.37
2017-02-01T14:37:11.361Z,28.03
2017-02-01T14:38:24.400Z,27.94
2017-02-01T14:39:38.115Z,27.93
2017-02-01T14:40:52.499Z,27.74
2017-02-01T14:42:06.881Z,27.77
2017-02-01T14:43:20.573Z,27.65
2017-02-01T14:44:35.236Z,27.57
2017-02-01T14:45:48.969Z,27.36
2017-02-01T14:47:03.316Z,27.5
2017-02-01T14:48:17.680Z,28.02
2017-02-01T14:49:32.036Z,28.48
2017-02-01T14:50:46.409Z,28.56
2017-02-01T14:52:00.821Z,28.74
2017-02-01T14:53:15.180Z,29.16
2017-02-01T14:54:28.248Z,29.24
2017-02-01T14:55:41.298Z,29.49
2017-02-01T14:56:55.629Z,29.71
2017-02-01T14:58:09.979Z,29.86
2017-02-01T14:59:24.347Z,29.67
2017-02-01T15:00:38.089Z,29.45
2017-02-01T15:01:52.433Z,29.18
2017-02-01T15:03:06.786Z,28.93
2017-02-01T15:04:21.120Z,28.86
2017-02-01T15:05:35.523Z,28.58
2017-02-01T15:06:49.228Z,28.37
2017-02-01T15:08:03.568Z,28.52
2017-02-01T15:09:17.282Z,28.62
2017-02-01T15:10:31.652Z,28.27
2017-02-01T15:11:45.977Z,27.88
2017-02-01T15:12:59.676Z,27.66
2017-02-01T15:14:13.406Z,27.49
2017-02-01T15:15:27.084Z,27.44
2017-02-01T15:16:41.435Z,27.25
2017-02-01T15:17:55.774Z,27.18
2017-02-01T15:19:10.128Z,26.87
2017-02-01T15:20:24.543Z,26.72
2017-02-01T15:21:38.909Z,26.73
2017-02-01T15:22:53.277Z,26.87
2017-02-01T15:24:06.971Z,26.99
2017-02-01T15:25:20.666Z,26.95
2017-02-01T15:26:35.013Z,26.82
2017-02-01T15:27:49.380Z,26.58
2017-02-01T15:29:03.708Z,26.58
2017-02-01T15:30:16.136Z,26.65
2017-02-01T15:31:29.828Z,26.73
2017-02-01T15:32:44.164Z,26.8
2017-02-01T15:33:58.514Z,27.09
2017-02-01T15:35:12.857Z,27.21
2017-02-01T15:36:26.566Z,27.43
2017-02-01T15:37:40.305Z,27.47
2017-02-01T15:38:54.669Z,27.22
2017-02-01T15:40:09.751Z,27.22
2017-02-01T15:41:24.099Z,27.31
2017-02-01T15:42:38.455Z,27.65
2017-02-01T15:43:52.827Z,27.99
2017-02-01T15:45:06.540Z,27.93
2017-02-01T15:46:20.895Z,28.04
2017-02-01T15:47:35.244Z,28.3
2017-02-01T15:48:49.626Z,28.18
2017-02-01T15:50:04.009Z,28.14
2017-02-01T15:51:18.369Z,28.11
2017-02-01T15:52:32.699Z,27.78
2017-02-01T15:53:47.612Z,27.55
2017-02-01T15:55:02.008Z,27.62
2017-02-01T15:56:15.730Z,27.93
2017-02-01T15:57:30.080Z,27.82
2017-02-01T15:58:43.785Z,27.77
2017-02-01T15:59:58.212Z,27.65
2017-02-01T16:01:11.916Z,27.51